Time;durP1;ratioP1;P1;durP2;ratioP2;P2;SDS_P1;SDS_P2;PMS_P1;PMS_P2;Temp;Humidity;BMP_temperature;BMP_pressure;BME280_temperature;BME280_humidity;BME280_pressure;Samples;Min_cycle;Max_cycle;Signal;HPM_P1;HPM_P2
2022/07/25 00:00:34;;;;;;;2.42;2.22;;;;;;;;;;6186994;23;20012;-86
2022/07/25 00:02:59;;;;;;;4.88;2.47;;;;;;;;;;6187355;23;20020;-87
2022/07/25 00:05:25;;;;;;;4.38;2.08;;;;;;;;;;6236933;23;20066;-87
2022/07/25 00:07:51;;;;;;;2.53;2.15;;;;;;;;;;6182884;23;20455;-87
2022/07/25 00:10:17;;;;;;;3.20;2.03;;;;;;;;;;6182628;23;20104;-87
2022/07/25 00:12:43;;;;;;;3.38;1.70;;;;;;;;;;6182458;22;20040;-87
2022/07/25 00:15:09;;;;;;;4.82;2.40;;;;;;;;;;6206110;23;20020;-87
2022/07/25 00:17:35;;;;;;;2.70;2.35;;;;;;;;;;6157559;23;20071;-86
2022/07/25 00:20:02;;;;;;;2.30;2.00;;;;;;;;;;6158762;23;20020;-86
2022/07/25 00:22:28;;;;;;;2.45;2.13;;;;;;;;;;6183456;22;20013;-86
2022/07/25 00:24:53;;;;;;;2.47;2.28;;;;;;;;;;6159245;23;20016;-86
2022/07/25 00:27:19;;;;;;;4.03;2.25;;;;;;;;;;6159031;23;20469;-86
2022/07/25 00:29:45;;;;;;;2.42;2.22;;;;;;;;;;6184042;22;20036;-86
2022/07/25 00:32:11;;;;;;;6.85;2.83;;;;;;;;;;6184290;23;20410;-85
2022/07/25 00:34:37;;;;;;;3.88;2.35;;;;;;;;;;6202583;23;20023;-85
2022/07/25 00:37:03;;;;;;;2.38;2.15;;;;;;;;;;6213434;23;20401;-85
2022/07/25 00:39:28;;;;;;;2.28;2.08;;;;;;;;;;6179490;23;20096;-86
2022/07/25 00:41:54;;;;;;;2.10;1.90;;;;;;;;;;6190018;23;20350;-85
2022/07/25 00:44:28;;;;;;;2.85;2.40;;;;;;;;;;6215654;23;20022;-86
2022/07/25 00:46:55;;;;;;;2.47;2.25;;;;;;;;;;6187933;23;20020;-86
2022/07/25 00:49:20;;;;;;;3.22;2.45;;;;;;;;;;6190967;23;20043;-86
2022/07/25 00:51:46;;;;;;;3.17;2.13;;;;;;;;;;6189454;23;20343;-86
2022/07/25 00:54:12;;;;;;;2.60;2.40;;;;;;;;;;6189734;23;20016;-85
2022/07/25 00:56:40;;;;;;;4.30;2.20;;;;;;;;;;6216126;23;20016;-85
2022/07/25 00:59:06;;;;;;;2.80;2.60;;;;;;;;;;6188440;22;20081;-85
2022/07/25 01:01:32;;;;;;;3.08;2.40;;;;;;;;;;6189987;23;20046;-86
2022/07/25 01:03:58;;;;;;;4.15;3.10;;;;;;;;;;6185878;23;20095;-86
2022/07/25 01:06:24;;;;;;;3.20;2.33;;;;;;;;;;6177864;23;20021;-86
2022/07/25 01:08:50;;;;;;;3.30;2.83;;;;;;;;;;6155146;23;20072;-86
2022/07/25 01:11:16;;;;;;;3.47;2.50;;;;;;;;;;6208184;23;20089;-85
2022/07/25 01:13:42;;;;;;;5.18;2.53;;;;;;;;;;6213954;23;20015;-85
2022/07/25 01:16:08;;;;;;;2.60;2.40;;;;;;;;;;6213948;22;20035;-86
2022/07/25 01:18:33;;;;;;;2.88;2.58;;;;;;;;;;6189285;23;20012;-85
2022/07/25 01:21:01;;;;;;;2.78;2.55;;;;;;;;;;6186574;23;20095;-86
2022/07/25 01:23:28;;;;;;;3.08;2.20;;;;;;;;;;6181608;23;20288;-86
2022/07/25 01:25:54;;;;;;;3.42;2.42;;;;;;;;;;6214411;23;20016;-85
2022/07/25 01:28:19;;;;;;;3.92;2.42;;;;;;;;;;6188779;22;20004;-86
2022/07/25 01:30:45;;;;;;;4.30;2.25;;;;;;;;;;6188699;23;20047;-85
2022/07/25 01:33:19;;;;;;;4.88;2.45;;;;;;;;;;6213456;23;20066;-85
2022/07/25 01:35:45;;;;;;;3.45;2.50;;;;;;;;;;6213448;23;20024;-85
2022/07/25 01:38:12;;;;;;;4.03;2.47;;;;;;;;;;6187810;23;20088;-86
2022/07/25 01:40:38;;;;;;;2.60;2.40;;;;;;;;;;6213282;22;20016;-86
2022/07/25 01:43:04;;;;;;;3.10;2.65;;;;;;;;;;6213594;23;20079;-85
2022/07/25 01:45:30;;;;;;;2.58;2.35;;;;;;;;;;6189365;23;20087;-86
2022/07/25 01:47:55;;;;;;;3.05;2.63;;;;;;;;;;6187579;23;20016;-86
2022/07/25 01:50:21;;;;;;;6.15;2.92;;;;;;;;;;6213578;23;20425;-86
2022/07/25 01:52:47;;;;;;;2.33;2.10;;;;;;;;;;6187905;23;20024;-86
2022/07/25 01:55:13;;;;;;;3.10;2.20;;;;;;;;;;6187908;23;20031;-86
2022/07/25 01:57:39;;;;;;;3.05;2.13;;;;;;;;;;6213388;23;20040;-86
2022/07/25 02:00:08;;;;;;;4.78;2.28;;;;;;;;;;6213571;23;20320;-86
2022/07/25 02:02:33;;;;;;;5.00;2.10;;;;;;;;;;6213408;23;20099;-86
2022/07/25 02:04:59;;;;;;;4.50;2.63;;;;;;;;;;6186829;23;20020;-86
2022/07/25 02:07:25;;;;;;;3.97;2.15;;;;;;;;;;6187962;23;20024;-86
2022/07/25 02:09:51;;;;;;;3.92;1.83;;;;;;;;;;6213820;23;20086;-86
2022/07/25 02:12:17;;;;;;;5.57;2.78;;;;;;;;;;6188719;23;20038;-86
2022/07/25 02:14:43;;;;;;;5.63;2.80;;;;;;;;;;6213195;22;20020;-86
2022/07/25 02:17:09;;;;;;;6.53;2.70;;;;;;;;;;6187555;23;20046;-86
2022/07/25 02:19:35;;;;;;;2.47;2.08;;;;;;;;;;6211670;23;20012;-86
2022/07/25 02:22:01;;;;;;;4.63;2.20;;;;;;;;;;6213682;22;20390;-86
2022/07/25 02:24:27;;;;;;;3.53;2.70;;;;;;;;;;6189227;23;20067;-86
2022/07/25 02:26:52;;;;;;;5.53;2.33;;;;;;;;;;6211871;23;20082;-86
2022/07/25 02:29:18;;;;;;;4.53;2.78;;;;;;;;;;6188218;23;20024;-86
2022/07/25 02:31:44;;;;;;;2.35;2.00;;;;;;;;;;6212098;23;20082;-86
2022/07/25 02:34:13;;;;;;;3.38;2.55;;;;;;;;;;6132218;23;20017;-84
2022/07/25 02:37:03;;;;;;;3.70;2.10;;;;;;;;;;6125074;23;20016;-84
2022/07/25 02:39:37;;;;;;;4.65;2.75;;;;;;;;;;6142679;23;20023;-85
2022/07/25 02:42:13;;;;;;;4.03;2.53;;;;;;;;;;6183125;23;20286;-85
2022/07/25 02:45:07;;;;;;;4.45;2.45;;;;;;;;;;6146093;23;20012;-85
2022/07/25 02:47:46;;;;;;;3.20;2.45;;;;;;;;;;6204348;23;20012;-85
2022/07/25 02:50:22;;;;;;;3.00;2.00;;;;;;;;;;6178915;23;20026;-85
2022/07/25 02:52:48;;;;;;;3.92;2.60;;;;;;;;;;6195102;23;20095;-86
2022/07/25 02:55:14;;;;;;;2.60;2.40;;;;;;;;;;6184188;23;20043;-86
2022/07/25 02:57:40;;;;;;;5.30;2.20;;;;;;;;;;6187594;23;20341;-86
2022/07/25 03:00:07;;;;;;;3.22;2.67;;;;;;;;;;6187141;23;20012;-87
2022/07/25 03:02:33;;;;;;;2.95;2.25;;;;;;;;;;6213417;22;20036;-87
2022/07/25 03:04:59;;;;;;;4.60;2.58;;;;;;;;;;6172442;23;20355;-87
2022/07/25 03:07:25;;;;;;;3.30;2.65;;;;;;;;;;6237850;23;20039;-87
2022/07/25 03:09:50;;;;;;;3.25;2.35;;;;;;;;;;6214006;22;20020;-87
2022/07/25 03:12:16;;;;;;;4.82;2.63;;;;;;;;;;6186521;23;20416;-87
2022/07/25 03:14:43;;;;;;;2.70;2.50;;;;;;;;;;6177191;23;20407;-86
2022/07/25 03:17:09;;;;;;;4.60;2.47;;;;;;;;;;6187201;23;20047;-86
2022/07/25 03:19:35;;;;;;;3.33;2.50;;;;;;;;;;6189117;23;20020;-85
2022/07/25 03:22:01;;;;;;;2.97;2.55;;;;;;;;;;6212890;23;20020;-87
2022/07/25 03:24:26;;;;;;;2.67;2.42;;;;;;;;;;6187158;23;20022;-88
2022/07/25 03:26:53;;;;;;;4.45;2.40;;;;;;;;;;6211645;23;20019;-87
2022/07/25 03:29:19;;;;;;;4.05;2.55;;;;;;;;;;6187535;23;20012;-87
2022/07/25 03:31:45;;;;;;;2.83;2.33;;;;;;;;;;6211892;23;20027;-86
2022/07/25 03:34:10;;;;;;;2.45;2.25;;;;;;;;;;6212718;23;20020;-87
2022/07/25 03:36:36;;;;;;;4.32;2.67;;;;;;;;;;6187110;22;20074;-86
2022/07/25 03:39:02;;;;;;;3.63;2.35;;;;;;;;;;6187574;23;20085;-87
2022/07/25 03:41:28;;;;;;;2.83;2.50;;;;;;;;;;6155231;23;20016;-87
2022/07/25 03:43:54;;;;;;;6.22;2.50;;;;;;;;;;6183016;23;20027;-87
2022/07/25 03:46:20;;;;;;;3.47;2.35;;;;;;;;;;6204294;23;20470;-87
2022/07/25 03:48:46;;;;;;;3.08;2.40;;;;;;;;;;6182731;23;20052;-87
2022/07/25 03:51:13;;;;;;;5.28;2.53;;;;;;;;;;6179466;23;20091;-87
2022/07/25 03:54:00;;;;;;;5.57;2.72;;;;;;;;;;6173157;23;20082;-87
2022/07/25 03:56:25;;;;;;;8.68;2.90;;;;;;;;;;6208679;23;20328;-87
2022/07/25 03:58:50;;;;;;;3.55;2.42;;;;;;;;;;6207365;22;20467;-87
2022/07/25 04:01:19;;;;;;;6.25;2.55;;;;;;;;;;6158262;23;20236;-87
2022/07/25 04:03:45;;;;;;;2.97;2.67;;;;;;;;;;6157950;23;20036;-87
2022/07/25 04:06:11;;;;;;;2.63;2.30;;;;;;;;;;6155767;23;20353;-87
2022/07/25 04:08:36;;;;;;;3.40;2.55;;;;;;;;;;6202916;23;20070;-86
2022/07/25 04:11:02;;;;;;;3.30;2.60;;;;;;;;;;6206674;23;20043;-86
2022/07/25 04:13:28;;;;;;;2.65;2.40;;;;;;;;;;6185980;23;20457;-86
2022/07/25 04:15:54;;;;;;;2.65;2.20;;;;;;;;;;6178199;23;20020;-88
2022/07/25 04:18:20;;;;;;;6.22;2.45;;;;;;;;;;6147921;23;20092;-87
2022/07/25 04:20:46;;;;;;;4.22;2.60;;;;;;;;;;6172648;23;20447;-90
2022/07/25 04:23:14;;;;;;;4.68;2.85;;;;;;;;;;6169319;23;20015;-88
2022/07/25 04:25:39;;;;;;;5.63;2.50;;;;;;;;;;6180455;23;20042;-88
2022/07/25 04:28:06;;;;;;;2.78;2.58;;;;;;;;;;6180589;23;20044;-86
2022/07/25 04:30:32;;;;;;;2.90;2.38;;;;;;;;;;6182462;23;20466;-89
2022/07/25 04:32:59;;;;;;;2.45;2.15;;;;;;;;;;6179852;22;20091;-89
2022/07/25 04:35:25;;;;;;;3.67;2.70;;;;;;;;;;6155623;23;20013;-87
2022/07/25 04:37:51;;;;;;;2.75;2.08;;;;;;;;;;6180790;22;20037;-84
2022/07/25 04:40:16;;;;;;;2.80;2.22;;;;;;;;;;6182900;23;20043;-88
2022/07/25 04:42:42;;;;;;;4.85;2.45;;;;;;;;;;6213140;23;20070;-89
2022/07/25 04:45:12;;;;;;;2.65;2.35;;;;;;;;;;6184157;23;20159;-86
2022/07/25 04:47:37;;;;;;;3.22;2.47;;;;;;;;;;6185836;23;20016;-86
2022/07/25 04:50:03;;;;;;;3.35;2.78;;;;;;;;;;6212584;23;20036;-87
2022/07/25 04:52:29;;;;;;;5.85;2.22;;;;;;;;;;6211484;23;20446;-86
2022/07/25 04:54:55;;;;;;;3.45;2.55;;;;;;;;;;6211790;22;20027;-89
2022/07/25 04:57:21;;;;;;;6.15;2.50;;;;;;;;;;6210120;23;20090;-89
2022/07/25 04:59:46;;;;;;;2.72;2.10;;;;;;;;;;6205902;23;20024;-86
2022/07/25 05:02:14;;;;;;;2.50;2.30;;;;;;;;;;6212123;23;20016;-86
2022/07/25 05:04:41;;;;;;;2.92;2.05;;;;;;;;;;6182785;23;20016;-86
2022/07/25 05:07:08;;;;;;;4.20;2.10;;;;;;;;;;6181826;23;20115;-85
2022/07/25 05:09:34;;;;;;;4.68;2.30;;;;;;;;;;6177926;23;20048;-88
2022/07/25 05:12:01;;;;;;;3.35;2.45;;;;;;;;;;6237282;22;20035;-87
2022/07/25 05:14:27;;;;;;;3.85;2.20;;;;;;;;;;6208446;23;20348;-87
2022/07/25 05:16:53;;;;;;;2.70;2.50;;;;;;;;;;6214463;23;20024;-87
2022/07/25 05:19:19;;;;;;;3.25;2.47;;;;;;;;;;6213455;23;20135;-87
2022/07/25 05:21:44;;;;;;;2.38;2.17;;;;;;;;;;6214584;23;20035;-88
2022/07/25 05:24:10;;;;;;;4.63;2.53;;;;;;;;;;6213967;22;20386;-87
2022/07/25 05:26:36;;;;;;;3.05;2.72;;;;;;;;;;6188082;23;20070;-86
2022/07/25 05:29:02;;;;;;;4.70;2.70;;;;;;;;;;6213337;23;20070;-87
2022/07/25 05:31:27;;;;;;;3.42;3.03;;;;;;;;;;6188039;23;20039;-88
2022/07/25 05:33:53;;;;;;;4.75;2.72;;;;;;;;;;6214107;23;20454;-88
2022/07/25 05:36:19;;;;;;;4.47;2.90;;;;;;;;;;6213551;22;20066;-87
2022/07/25 05:38:44;;;;;;;6.97;2.90;;;;;;;;;;6214527;23;20035;-88
2022/07/25 05:41:10;;;;;;;5.03;2.33;;;;;;;;;;6214095;22;20458;-86
2022/07/25 05:43:36;;;;;;;3.45;2.60;;;;;;;;;;6187398;23;20020;-85
2022/07/25 05:46:03;;;;;;;5.45;2.53;;;;;;;;;;6212873;23;20110;-88
2022/07/25 05:48:29;;;;;;;7.03;2.90;;;;;;;;;;6186378;23;20217;-88
2022/07/25 05:50:55;;;;;;;4.78;2.97;;;;;;;;;;6187998;23;20524;-88
2022/07/25 05:53:21;;;;;;;4.57;2.67;;;;;;;;;;6188147;23;20095;-87
2022/07/25 05:55:47;;;;;;;3.60;2.67;;;;;;;;;;6184837;23;20019;-86
2022/07/25 05:58:13;;;;;;;3.60;2.50;;;;;;;;;;6169486;23;20016;-88
2022/07/25 06:00:38;;;;;;;3.92;2.63;;;;;;;;;;6212852;23;20254;-88
2022/07/25 06:03:04;;;;;;;4.93;2.70;;;;;;;;;;6189163;23;20070;-87
2022/07/25 06:05:30;;;;;;;5.07;3.20;;;;;;;;;;6239412;23;20070;-87
2022/07/25 06:07:56;;;;;;;3.65;2.53;;;;;;;;;;6212283;23;20095;-87
2022/07/25 06:10:22;;;;;;;4.53;2.78;;;;;;;;;;6212056;23;20016;-86
2022/07/25 06:12:48;;;;;;;4.03;3.00;;;;;;;;;;6211843;23;20510;-87
2022/07/25 06:15:14;;;;;;;3.47;3.05;;;;;;;;;;6161793;23;20017;-87
2022/07/25 06:17:40;;;;;;;3.00;2.80;;;;;;;;;;6208282;23;20028;-86
2022/07/25 06:20:06;;;;;;;3.30;3.00;;;;;;;;;;6165612;23;20398;-87
2022/07/25 06:22:31;;;;;;;3.40;3.03;;;;;;;;;;6158378;23;20012;-86
2022/07/25 06:24:57;;;;;;;3.50;2.88;;;;;;;;;;6178433;23;20537;-87
2022/07/25 06:27:23;;;;;;;3.50;3.20;;;;;;;;;;6153310;23;20447;-88
2022/07/25 06:29:49;;;;;;;3.58;3.10;;;;;;;;;;6158359;23;20470;-87
2022/07/25 06:32:14;;;;;;;4.55;3.50;;;;;;;;;;6207084;23;20092;-88
2022/07/25 06:34:40;;;;;;;4.28;3.22;;;;;;;;;;6213713;23;20004;-87
2022/07/25 06:37:06;;;;;;;4.88;3.25;;;;;;;;;;6188686;23;20312;-85
2022/07/25 06:39:32;;;;;;;9.15;3.50;;;;;;;;;;6214291;23;20020;-89
2022/07/25 06:41:58;;;;;;;5.13;3.55;;;;;;;;;;6176004;23;20386;-88
2022/07/25 06:44:24;;;;;;;4.30;3.70;;;;;;;;;;6162600;23;20355;-88
2022/07/25 06:46:50;;;;;;;6.35;3.13;;;;;;;;;;6159366;23;20100;-87
2022/07/25 06:49:16;;;;;;;4.22;3.35;;;;;;;;;;6181578;23;20336;-88
2022/07/25 06:51:42;;;;;;;6.85;3.30;;;;;;;;;;6181377;23;20038;-87
2022/07/25 06:54:08;;;;;;;5.13;3.80;;;;;;;;;;6202612;23;20043;-85
2022/07/25 06:56:33;;;;;;;4.47;3.42;;;;;;;;;;6202828;23;20055;-88
2022/07/25 06:58:59;;;;;;;5.30;3.90;;;;;;;;;;6183117;23;20012;-89
2022/07/25 07:01:25;;;;;;;6.88;3.67;;;;;;;;;;6212889;23;20020;-88
2022/07/25 07:03:51;;;;;;;3.65;3.35;;;;;;;;;;6189416;23;20027;-88
2022/07/25 07:06:17;;;;;;;5.50;4.25;;;;;;;;;;6188606;22;20016;-88
2022/07/25 07:08:42;;;;;;;4.88;4.22;;;;;;;;;;6188463;23;20019;-88
2022/07/25 07:11:08;;;;;;;5.30;4.22;;;;;;;;;;6215059;23;20023;-87
2022/07/25 07:13:34;;;;;;;5.10;4.53;;;;;;;;;;6191258;23;20298;-88
2022/07/25 07:16:00;;;;;;;4.28;3.33;;;;;;;;;;6190730;23;20023;-87
2022/07/25 07:18:26;;;;;;;5.47;4.25;;;;;;;;;;6216538;23;20444;-87
2022/07/25 07:20:52;;;;;;;4.38;3.95;;;;;;;;;;6190646;23;20063;-88
2022/07/25 07:23:18;;;;;;;4.82;4.38;;;;;;;;;;6191349;23;20496;-87
2022/07/25 07:25:45;;;;;;;4.68;3.92;;;;;;;;;;6215334;23;20016;-87
2022/07/25 07:28:11;;;;;;;6.28;4.28;;;;;;;;;;6215944;23;20494;-87
2022/07/25 07:30:37;;;;;;;4.35;3.92;;;;;;;;;;6213441;22;20012;-88
2022/07/25 07:33:02;;;;;;;5.95;4.22;;;;;;;;;;6178087;23;20035;-88
2022/07/25 07:35:28;;;;;;;5.88;4.57;;;;;;;;;;6214767;23;20450;-88
2022/07/25 07:37:54;;;;;;;4.18;3.78;;;;;;;;;;6184683;23;20027;-85
2022/07/25 07:40:25;;;;;;;5.28;4.20;;;;;;;;;;6184368;23;20020;-85
2022/07/25 07:42:52;;;;;;;4.60;4.20;;;;;;;;;;6191870;23;20055;-88
2022/07/25 07:45:23;;;;;;;7.90;4.30;;;;;;;;;;6202042;23;20020;-88
2022/07/25 07:47:51;;;;;;;4.72;4.32;;;;;;;;;;6188859;23;20020;-88
2022/07/25 07:50:19;;;;;;;4.65;4.18;;;;;;;;;;6189213;23;20100;-85
2022/07/25 07:52:46;;;;;;;5.05;4.65;;;;;;;;;;6214971;23;20362;-89
2022/07/25 07:57:58;;;;;;;4.97;4.57;;;;;;;;;;6209289;23;20026;-86
2022/07/25 08:00:25;;;;;;;7.07;5.05;;;;;;;;;;6179257;23;20012;-88
2022/07/25 08:02:52;;;;;;;7.75;5.07;;;;;;;;;;6185213;23;20095;-87
2022/07/25 08:05:23;;;;;;;5.90;5.15;;;;;;;;;;6169869;23;20047;-88
2022/07/25 08:07:52;;;;;;;7.60;6.68;;;;;;;;;;6161477;23;20903;-87
2022/07/25 08:10:24;;;;;;;5.60;5.00;;;;;;;;;;6175722;23;20031;-88
2022/07/25 08:12:51;;;;;;;7.25;4.80;;;;;;;;;;6176212;23;20098;-87
2022/07/25 08:15:19;;;;;;;6.55;4.97;;;;;;;;;;6187642;23;20462;-87
2022/07/25 08:17:46;;;;;;;6.97;5.30;;;;;;;;;;6184543;23;20023;-88
2022/07/25 08:20:12;;;;;;;6.93;5.30;;;;;;;;;;6189667;23;20083;-87
2022/07/25 08:22:49;;;;;;;5.85;5.25;;;;;;;;;;6189961;23;20020;-87
2022/07/25 08:25:19;;;;;;;9.02;6.00;;;;;;;;;;6212383;23;20455;-88
2022/07/25 08:27:48;;;;;;;5.60;5.10;;;;;;;;;;6167804;23;20028;-88
2022/07/25 08:30:15;;;;;;;7.47;5.80;;;;;;;;;;6182826;23;20375;-87
2022/07/25 08:32:51;;;;;;;7.95;6.22;;;;;;;;;;6184905;23;20249;-87
2022/07/25 08:35:20;;;;;;;6.88;5.88;;;;;;;;;;6176210;23;20195;-87
2022/07/25 08:37:47;;;;;;;7.68;6.65;;;;;;;;;;6217401;23;20016;-87
2022/07/25 08:40:16;;;;;;;8.18;6.32;;;;;;;;;;6188307;23;20417;-88
2022/07/25 08:42:42;;;;;;;8.70;6.47;;;;;;;;;;6236740;23;20051;-87
2022/07/25 08:45:12;;;;;;;8.27;5.65;;;;;;;;;;6215501;23;20394;-87
2022/07/25 08:47:39;;;;;;;6.57;6.07;;;;;;;;;;6216185;23;20012;-88
2022/07/25 08:50:10;;;;;;;7.15;6.43;;;;;;;;;;6242669;23;20039;-88
2022/07/25 08:52:37;;;;;;;7.53;6.15;;;;;;;;;;6216169;23;20027;-87
2022/07/25 08:55:09;;;;;;;7.25;6.07;;;;;;;;;;6185922;23;20039;-87
2022/07/25 08:57:37;;;;;;;10.18;6.72;;;;;;;;;;6216519;23;20023;-87
2022/07/25 09:00:05;;;;;;;7.20;6.45;;;;;;;;;;6191616;23;20032;-89
2022/07/25 09:02:31;;;;;;;7.13;6.43;;;;;;;;;;6213340;23;20012;-88
2022/07/25 09:04:58;;;;;;;7.28;6.65;;;;;;;;;;6191109;23;20030;-88
2022/07/25 09:07:39;;;;;;;7.65;6.80;;;;;;;;;;6184659;23;20016;-88
2022/07/25 09:10:19;;;;;;;7.60;6.78;;;;;;;;;;6190725;23;20013;-88
2022/07/25 09:12:55;;;;;;;6.53;6.00;;;;;;;;;;6235346;23;20095;-85
2022/07/25 09:15:29;;;;;;;9.43;6.75;;;;;;;;;;6188913;23;20211;-88
2022/07/25 09:17:59;;;;;;;7.13;6.43;;;;;;;;;;6185893;23;20027;-89
2022/07/25 09:20:47;;;;;;;7.65;6.82;;;;;;;;;;6216762;23;20413;-89
2022/07/25 09:23:38;;;;;;;7.70;7.00;;;;;;;;;;6202791;23;20020;-90
2022/07/25 09:26:08;;;;;;;8.15;6.40;;;;;;;;;;6175533;23;20386;-88
2022/07/25 09:28:52;;;;;;;8.13;7.28;;;;;;;;;;6215472;23;20026;-88
2022/07/25 09:31:21;;;;;;;8.27;7.47;;;;;;;;;;6191124;23;20017;-87
2022/07/25 09:33:50;;;;;;;11.02;7.05;;;;;;;;;;6217961;23;20466;-87
2022/07/25 09:36:16;;;;;;;7.90;7.22;;;;;;;;;;6182892;23;20008;-86
2022/07/25 09:38:58;;;;;;;7.97;6.70;;;;;;;;;;6215286;23;20016;-86
2022/07/25 09:41:39;;;;;;;9.48;7.72;;;;;;;;;;6185014;23;20458;-86
2022/07/25 09:44:21;;;;;;;8.52;7.18;;;;;;;;;;6187762;23;20016;-86
2022/07/25 09:46:48;;;;;;;10.23;7.63;;;;;;;;;;6215295;22;20016;-86
2022/07/25 09:49:14;;;;;;;8.82;7.53;;;;;;;;;;6190043;23;20012;-85
2022/07/25 09:51:42;;;;;;;8.60;7.50;;;;;;;;;;6212974;23;20016;-85
2022/07/25 09:54:08;;;;;;;8.65;7.93;;;;;;;;;;6180696;23;20066;-86
2022/07/25 09:56:34;;;;;;;10.20;7.88;;;;;;;;;;6213257;23;20020;-86
2022/07/25 09:59:03;;;;;;;9.05;7.82;;;;;;;;;;6237860;22;20531;-85
2022/07/25 10:01:36;;;;;;;8.82;7.97;;;;;;;;;;6186407;23;20023;-86
2022/07/25 10:04:12;;;;;;;8.82;7.93;;;;;;;;;;6188317;23;20008;-85
2022/07/25 10:06:40;;;;;;;9.65;8.68;;;;;;;;;;6214714;23;20099;-85
2022/07/25 10:09:13;;;;;;;9.38;8.35;;;;;;;;;;6184060;23;20018;-85
2022/07/25 10:11:39;;;;;;;8.55;7.70;;;;;;;;;;6157691;23;20043;-83
2022/07/25 10:14:11;;;;;;;9.90;8.70;;;;;;;;;;6159629;23;20082;-86
2022/07/25 10:16:47;;;;;;;10.40;8.63;;;;;;;;;;6182963;23;20051;-86
2022/07/25 10:19:13;;;;;;;9.13;8.23;;;;;;;;;;6157009;23;20013;-86
2022/07/25 10:21:54;;;;;;;9.70;8.80;;;;;;;;;;6209123;23;20107;-88
2022/07/25 10:24:20;;;;;;;9.02;8.10;;;;;;;;;;6187701;23;20085;-86
2022/07/25 10:26:52;;;;;;;9.77;8.98;;;;;;;;;;6187917;23;20099;-87
2022/07/25 10:29:18;;;;;;;9.35;8.43;;;;;;;;;;6212627;23;20477;-87
2022/07/25 10:31:48;;;;;;;10.35;9.32;;;;;;;;;;6188822;23;20021;-87
2022/07/25 10:34:14;;;;;;;8.93;8.13;;;;;;;;;;6189824;23;20022;-87
2022/07/25 10:37:18;;;;;;;9.45;8.43;;;;;;;;;;6158940;23;20021;-88
2022/07/25 10:40:48;;;;;;;8.60;7.80;;;;;;;;;;6075284;23;20014;-89
2022/07/25 10:43:40;;;;;;;9.43;8.57;;;;;;;;;;6054952;23;20026;-88
2022/07/25 10:47:18;;;;;;;10.15;9.15;;;;;;;;;;6007252;23;20042;-89
2022/07/25 10:49:48;;;;;;;9.57;8.85;;;;;;;;;;6024899;23;20007;-88
2022/07/25 10:52:37;;;;;;;8.93;8.13;;;;;;;;;;6078048;23;20054;-89
2022/07/25 10:55:03;;;;;;;9.77;8.80;;;;;;;;;;6078514;23;20063;-88
2022/07/25 10:57:35;;;;;;;10.88;9.57;;;;;;;;;;6108619;23;20032;-89
2022/07/25 11:00:07;;;;;;;9.38;8.68;;;;;;;;;;6110515;23;20554;-87
2022/07/25 11:02:36;;;;;;;9.18;8.38;;;;;;;;;;6180451;23;20099;-86
2022/07/25 11:05:18;;;;;;;9.93;9.00;;;;;;;;;;6209892;23;20357;-89
2022/07/25 11:07:55;;;;;;;9.93;9.13;;;;;;;;;;6208611;23;20087;-85
2022/07/25 11:10:26;;;;;;;9.57;8.68;;;;;;;;;;6182767;23;20604;-85
2022/07/25 11:12:52;;;;;;;10.02;9.20;;;;;;;;;;6157792;23;20012;-83
2022/07/25 11:15:23;;;;;;;9.77;8.95;;;;;;;;;;6158490;23;20328;-83
2022/07/25 11:17:56;;;;;;;9.38;8.77;;;;;;;;;;6183226;23;20016;-84
2022/07/25 11:20:22;;;;;;;10.32;9.43;;;;;;;;;;6166420;23;20013;-83
2022/07/25 11:22:57;;;;;;;9.82;8.82;;;;;;;;;;6209163;23;20047;-84
2022/07/25 11:25:26;;;;;;;10.10;9.38;;;;;;;;;;6160178;23;20031;-85
2022/07/25 11:27:56;;;;;;;10.00;9.10;;;;;;;;;;6189092;23;20055;-84
2022/07/25 11:30:24;;;;;;;8.85;8.05;;;;;;;;;;6155824;23;20016;-85
2022/07/25 11:32:53;;;;;;;10.05;9.23;;;;;;;;;;6180335;23;20047;-85
2022/07/25 11:35:24;;;;;;;10.10;9.18;;;;;;;;;;6158824;23;20115;-86
2022/07/25 11:37:53;;;;;;;9.95;9.15;;;;;;;;;;6180793;23;20074;-84
2022/07/25 11:40:21;;;;;;;10.15;9.35;;;;;;;;;;6163373;23;20508;-85
2022/07/25 11:42:51;;;;;;;9.85;9.05;;;;;;;;;;6184146;23;20025;-85
2022/07/25 11:45:22;;;;;;;9.40;8.63;;;;;;;;;;6186428;23;20092;-85
2022/07/25 11:48:01;;;;;;;9.35;8.65;;;;;;;;;;6164744;23;20020;-86
2022/07/25 11:50:32;;;;;;;9.88;9.13;;;;;;;;;;6173556;23;20019;-85
2022/07/25 11:53:00;;;;;;;9.90;9.02;;;;;;;;;;6157188;23;20337;-85
2022/07/25 11:55:30;;;;;;;9.82;9.02;;;;;;;;;;6185103;23;20016;-84
2022/07/25 11:58:01;;;;;;;8.80;8.20;;;;;;;;;;6182825;23;20488;-84
2022/07/25 12:00:27;;;;;;;9.15;8.23;;;;;;;;;;6178992;23;20112;-84
2022/07/25 12:02:52;;;;;;;9.15;8.30;;;;;;;;;;6185123;23;20530;-85
2022/07/25 12:05:21;;;;;;;9.57;8.98;;;;;;;;;;6163094;23;20021;-86
2022/07/25 12:07:52;;;;;;;8.77;8.13;;;;;;;;;;6212991;23;20472;-84
2022/07/25 12:10:22;;;;;;;9.00;8.25;;;;;;;;;;6185024;23;20598;-84
2022/07/25 12:12:54;;;;;;;8.63;8.07;;;;;;;;;;6157683;23;20017;-84
2022/07/25 12:15:33;;;;;;;8.18;7.47;;;;;;;;;;6169193;23;20013;-85
2022/07/25 12:18:00;;;;;;;9.70;8.82;;;;;;;;;;6135047;23;20044;-85
2022/07/25 12:20:29;;;;;;;9.43;8.73;;;;;;;;;;6213550;23;20020;-84
2022/07/25 12:22:57;;;;;;;9.95;9.15;;;;;;;;;;6193399;23;20082;-84
2022/07/25 12:25:23;;;;;;;9.93;8.95;;;;;;;;;;6189422;23;20016;-85
2022/07/25 12:27:49;;;;;;;9.20;8.38;;;;;;;;;;6186566;23;20062;-85
2022/07/25 12:30:16;;;;;;;9.10;8.27;;;;;;;;;;6188532;23;20016;-84
2022/07/25 12:32:42;;;;;;;9.52;8.48;;;;;;;;;;6191028;23;20008;-84
2022/07/25 12:35:10;;;;;;;9.02;8.13;;;;;;;;;;6217180;23;20019;-85
2022/07/25 12:37:36;;;;;;;9.23;8.40;;;;;;;;;;6187398;23;20022;-84
2022/07/25 12:40:03;;;;;;;8.73;8.13;;;;;;;;;;6214371;23;20024;-83
2022/07/25 12:42:28;;;;;;;9.68;8.77;;;;;;;;;;6187338;23;20016;-84
2022/07/25 12:44:55;;;;;;;8.85;8.18;;;;;;;;;;6190147;23;20012;-85
2022/07/25 12:47:24;;;;;;;9.05;8.35;;;;;;;;;;6187378;23;20016;-84
2022/07/25 12:49:50;;;;;;;9.77;8.82;;;;;;;;;;6190676;23;20083;-85
2022/07/25 12:52:16;;;;;;;8.80;8.20;;;;;;;;;;6216794;23;20047;-82
2022/07/25 12:54:42;;;;;;;9.15;8.40;;;;;;;;;;6193745;23;20016;-82
2022/07/25 12:57:10;;;;;;;9.18;8.50;;;;;;;;;;6193781;23;20089;-83
2022/07/25 12:59:36;;;;;;;9.30;8.50;;;;;;;;;;6191544;23;20049;-83
2022/07/25 13:02:01;;;;;;;8.30;7.70;;;;;;;;;;6192786;23;20024;-83
2022/07/25 13:04:27;;;;;;;9.27;8.07;;;;;;;;;;6185694;23;20017;-84
2022/07/25 13:06:54;;;;;;;9.60;8.82;;;;;;;;;;6162267;23;20107;-84
2022/07/25 13:09:20;;;;;;;9.02;8.38;;;;;;;;;;6215318;23;20599;-85
2022/07/25 13:11:45;;;;;;;9.82;8.50;;;;;;;;;;6218512;23;20023;-84
2022/07/25 13:14:11;;;;;;;8.77;8.18;;;;;;;;;;6216599;23;20036;-85
2022/07/25 13:16:37;;;;;;;8.80;8.10;;;;;;;;;;6216145;23;20028;-84
2022/07/25 13:19:04;;;;;;;8.98;8.23;;;;;;;;;;6216463;23;20016;-85
2022/07/25 13:21:30;;;;;;;9.23;8.60;;;;;;;;;;6190523;23;20093;-85
2022/07/25 13:23:57;;;;;;;8.82;8.05;;;;;;;;;;6216331;23;20016;-85
2022/07/25 13:26:22;;;;;;;9.38;8.68;;;;;;;;;;6190138;23;20032;-85
2022/07/25 13:28:52;;;;;;;9.75;9.02;;;;;;;;;;6215509;23;20051;-85
2022/07/25 13:31:22;;;;;;;9.90;9.10;;;;;;;;;;6218263;23;20012;-84
2022/07/25 13:33:48;;;;;;;9.35;8.65;;;;;;;;;;6192199;23;20023;-85
2022/07/25 13:36:15;;;;;;;9.32;8.55;;;;;;;;;;6216114;23;20020;-85
2022/07/25 13:38:44;;;;;;;9.40;8.80;;;;;;;;;;6189816;23;20481;-85
2022/07/25 13:41:10;;;;;;;9.18;8.48;;;;;;;;;;6188069;23;20032;-85
2022/07/25 13:43:36;;;;;;;8.77;7.95;;;;;;;;;;6217039;22;20096;-84
2022/07/25 13:46:02;;;;;;;9.27;8.38;;;;;;;;;;6214596;23;20020;-85
2022/07/25 13:48:31;;;;;;;8.68;8.07;;;;;;;;;;6215522;23;20020;-85
2022/07/25 13:50:58;;;;;;;10.40;8.18;;;;;;;;;;6218458;23;20115;-86
2022/07/25 13:53:24;;;;;;;8.25;7.60;;;;;;;;;;6217284;23;20027;-85
2022/07/25 13:55:49;;;;;;;8.60;7.97;;;;;;;;;;6199190;22;20345;-85
2022/07/25 13:58:15;;;;;;;9.13;8.32;;;;;;;;;;6217776;23;20430;-85
2022/07/25 14:00:41;;;;;;;8.27;7.60;;;;;;;;;;6172027;23;20008;-86
2022/07/25 14:03:07;;;;;;;11.77;8.35;;;;;;;;;;6146757;23;20017;-84
2022/07/25 14:05:38;;;;;;;8.27;7.57;;;;;;;;;;6183033;23;20526;-85
2022/07/25 14:08:05;;;;;;;8.52;7.55;;;;;;;;;;6216212;23;20082;-85
2022/07/25 14:10:33;;;;;;;9.40;8.45;;;;;;;;;;6173966;23;20016;-85
2022/07/25 14:13:01;;;;;;;8.73;7.93;;;;;;;;;;6188227;23;20073;-86
2022/07/25 14:15:28;;;;;;;9.13;8.23;;;;;;;;;;6183522;23;20019;-85
2022/07/25 14:17:54;;;;;;;9.25;8.45;;;;;;;;;;6185062;23;20418;-84
2022/07/25 14:20:20;;;;;;;9.05;8.25;;;;;;;;;;6210086;23;20217;-85
2022/07/25 14:22:47;;;;;;;9.13;8.30;;;;;;;;;;6208535;23;20042;-85
2022/07/25 14:25:13;;;;;;;9.50;8.60;;;;;;;;;;6185200;23;20008;-85
2022/07/25 14:27:39;;;;;;;9.65;8.68;;;;;;;;;;6210909;23;20008;-86
2022/07/25 14:30:07;;;;;;;9.68;8.80;;;;;;;;;;6214577;23;20020;-86
2022/07/25 14:32:33;;;;;;;8.52;7.93;;;;;;;;;;6211410;23;20028;-86
2022/07/25 14:35:00;;;;;;;8.95;8.10;;;;;;;;;;6212790;23;20405;-85
2022/07/25 14:37:27;;;;;;;8.55;7.68;;;;;;;;;;6187209;23;20027;-86
2022/07/25 14:39:53;;;;;;;8.70;8.10;;;;;;;;;;6185623;23;20027;-87
2022/07/25 14:42:19;;;;;;;8.93;8.18;;;;;;;;;;6186703;23;20031;-85
2022/07/25 14:44:44;;;;;;;8.05;7.35;;;;;;;;;;6205202;23;20353;-87
2022/07/25 14:47:10;;;;;;;8.48;7.78;;;;;;;;;;6188361;23;20465;-86
2022/07/25 14:49:36;;;;;;;9.30;8.40;;;;;;;;;;6187726;23;20091;-85
2022/07/25 14:52:02;;;;;;;8.90;8.30;;;;;;;;;;6214045;23;20020;-85